Time;durP1;ratioP1;P1;durP2;ratioP2;P2;SDS_P1;SDS_P2;PMS_P1;PMS_P2;Temp;Humidity;BMP_temperature;BMP_pressure;BME280_temperature;BME280_humidity;BME280_pressure;Samples;Min_cycle;Max_cycle;Signal;HPM_P1;HPM_P2
2022/03/01 00:02:03;;;;;;;17.20;9.68;;;3.70;99.30;;;;;;5077025;28;20048;-66
2022/03/01 00:04:29;;;;;;;13.02;8.77;;;3.70;99.40;;;;;;5077049;28;20047;-65
2022/03/01 00:06:55;;;;;;;16.77;9.40;;;3.60;99.60;;;;;;5077240;28;20040;-66
2022/03/01 00:09:21;;;;;;;15.30;10.25;;;3.60;99.70;;;;;;5076899;28;20044;-66
2022/03/01 00:11:46;;;;;;;17.20;11.02;;;3.60;99.90;;;;;;5077109;28;20096;-66
2022/03/01 00:14:12;;;;;;;15.65;9.77;;;3.50;99.80;;;;;;5076979;28;20080;-66
2022/03/01 00:16:38;;;;;;;17.13;9.63;;;3.50;99.90;;;;;;5076651;28;20078;-66
2022/03/01 00:19:04;;;;;;;16.15;10.65;;;3.40;99.90;;;;;;5076738;28;20043;-66
2022/03/01 00:21:30;;;;;;;19.67;10.63;;;3.40;99.90;;;;;;5076688;28;20044;-66
2022/03/01 00:23:56;;;;;;;16.13;9.25;;;3.40;99.90;;;;;;5074071;28;20056;-66
2022/03/01 00:26:23;;;;;;;15.20;10.15;;;3.40;99.90;;;;;;5059929;28;20051;-66
2022/03/01 00:28:49;;;;;;;18.13;10.52;;;3.30;99.90;;;;;;5060341;28;20036;-66
2022/03/01 00:31:15;;;;;;;18.88;10.80;;;3.30;99.90;;;;;;5059652;28;20036;-66
2022/03/01 00:33:41;;;;;;;19.13;10.70;;;3.30;99.90;;;;;;5060191;28;20102;-66
2022/03/01 00:36:07;;;;;;;18.20;10.45;;;3.30;99.90;;;;;;5076783;28;20597;-66
2022/03/01 00:38:34;;;;;;;18.85;10.98;;;3.30;99.90;;;;;;5076069;28;20036;-66
2022/03/01 00:41:01;;;;;;;18.17;11.18;;;3.20;99.90;;;;;;5059747;28;20504;-66
2022/03/01 00:43:27;;;;;;;15.50;10.48;;;3.20;99.90;;;;;;5076303;28;20040;-66
2022/03/01 00:45:53;;;;;;;14.45;8.73;;;3.20;99.90;;;;;;5076354;28;20040;-65
2022/03/01 00:48:20;;;;;;;17.00;10.32;;;3.20;99.90;;;;;;5076261;28;20043;-66
2022/03/01 00:50:46;;;;;;;17.30;10.13;;;3.10;99.90;;;;;;5059647;28;20127;-66
2022/03/01 00:53:12;;;;;;;19.00;11.15;;;3.10;99.90;;;;;;5073760;28;20048;-66
2022/03/01 00:55:38;;;;;;;16.38;10.00;;;3.00;99.90;;;;;;5059453;28;20040;-66
2022/03/01 00:58:04;;;;;;;15.77;9.27;;;2.90;99.90;;;;;;5076248;28;20035;-66
2022/03/01 01:00:31;;;;;;;16.52;11.77;;;2.90;99.90;;;;;;5076071;28;20042;-66
2022/03/01 01:02:57;;;;;;;15.05;10.32;;;2.80;99.90;;;;;;5059306;28;20040;-66
2022/03/01 01:05:23;;;;;;;16.13;10.63;;;2.80;99.90;;;;;;5059288;28;20036;-66
2022/03/01 01:07:49;;;;;;;18.80;11.10;;;2.70;99.90;;;;;;5075790;28;20128;-66
2022/03/01 01:10:16;;;;;;;19.08;11.38;;;2.70;99.90;;;;;;5075904;28;20044;-66
2022/03/01 01:12:42;;;;;;;16.77;9.80;;;2.70;99.90;;;;;;5058967;28;20047;-66
2022/03/01 01:15:10;;;;;;;19.90;11.65;;;2.70;99.90;;;;;;5075765;28;20040;-66
2022/03/01 01:17:36;;;;;;;16.90;11.02;;;2.60;99.90;;;;;;5075605;28;20044;-66
2022/03/01 01:20:04;;;;;;;17.52;10.75;;;2.60;99.90;;;;;;5059345;28;20044;-65
2022/03/01 01:22:42;;;;;;;17.65;11.23;;;2.50;99.90;;;;;;5075633;28;20036;-66
2022/03/01 01:25:26;;;;;;;17.70;10.45;;;2.50;99.90;;;;;;5072950;28;20058;-66
2022/03/01 01:27:55;;;;;;;15.93;9.77;;;2.60;99.90;;;;;;5075904;28;20083;-66
2022/03/01 01:30:23;;;;;;;20.58;11.50;;;2.50;99.90;;;;;;5059073;28;20123;-66
2022/03/01 01:32:49;;;;;;;19.27;12.15;;;2.60;99.90;;;;;;5075597;28;20092;-66
2022/03/01 01:35:17;;;;;;;23.42;12.38;;;2.50;99.90;;;;;;5075769;28;20051;-66
2022/03/01 01:37:44;;;;;;;18.42;11.13;;;2.50;99.90;;;;;;5075261;28;20040;-66
2022/03/01 01:40:13;;;;;;;18.40;11.05;;;2.50;99.90;;;;;;5075564;28;20411;-66
2022/03/01 01:42:39;;;;;;;18.08;10.77;;;2.50;99.90;;;;;;5075507;28;20472;-66
2022/03/01 01:45:05;;;;;;;17.10;10.45;;;2.50;99.90;;;;;;5075310;28;20035;-65
2022/03/01 01:47:31;;;;;;;21.73;11.77;;;2.50;99.90;;;;;;5075184;28;20044;-65
2022/03/01 01:49:57;;;;;;;17.27;11.13;;;2.50;99.90;;;;;;5058296;28;20559;-65
2022/03/01 01:52:27;;;;;;;18.27;11.10;;;2.50;99.90;;;;;;5074985;28;20138;-65
2022/03/01 01:54:53;;;;;;;17.63;10.65;;;2.50;99.90;;;;;;5072610;28;20051;-65
2022/03/01 01:57:21;;;;;;;20.02;11.32;;;2.40;99.90;;;;;;5058267;28;20071;-65
2022/03/01 01:59:49;;;;;;;16.65;10.05;;;2.40;99.90;;;;;;5058255;28;20043;-65
2022/03/01 02:02:17;;;;;;;19.20;10.85;;;2.40;99.90;;;;;;5074843;28;20040;-65
2022/03/01 02:04:44;;;;;;;18.75;11.43;;;2.40;99.90;;;;;;5074879;28;20040;-65
2022/03/01 02:07:11;;;;;;;17.33;11.50;;;2.40;99.90;;;;;;5074621;28;20055;-65
2022/03/01 02:09:36;;;;;;;17.08;11.15;;;2.40;99.90;;;;;;5075019;28;20098;-66
2022/03/01 02:12:03;;;;;;;17.35;11.73;;;2.40;99.90;;;;;;5074689;28;20040;-66
2022/03/01 02:14:37;;;;;;;17.95;10.98;;;2.40;99.90;;;;;;5074592;28;20082;-66
2022/03/01 02:17:05;;;;;;;18.75;11.13;;;2.40;99.90;;;;;;5074907;28;20046;-65
2022/03/01 02:19:31;;;;;;;17.48;10.93;;;2.50;99.90;;;;;;5057805;28;20554;-65
2022/03/01 02:21:58;;;;;;;18.27;10.48;;;2.50;99.90;;;;;;5074473;28;20071;-66
2022/03/01 02:24:26;;;;;;;18.88;11.13;;;2.50;99.90;;;;;;5071763;28;20544;-66
2022/03/01 02:26:57;;;;;;;16.75;11.25;;;2.50;99.90;;;;;;5074389;28;20044;-65
2022/03/01 02:29:24;;;;;;;18.45;10.52;;;2.60;99.90;;;;;;5074767;28;20439;-66
2022/03/01 02:31:51;;;;;;;17.33;11.98;;;2.50;99.90;;;;;;5065060;28;20044;-65
2022/03/01 02:34:17;;;;;;;17.67;10.00;;;2.60;99.90;;;;;;5054138;28;20508;-66
2022/03/01 02:36:44;;;;;;;16.20;10.68;;;2.60;99.90;;;;;;5054543;28;20043;-66
2022/03/01 02:39:11;;;;;;;17.92;10.52;;;2.60;99.90;;;;;;5037474;28;20094;-66
2022/03/01 02:41:38;;;;;;;18.60;11.20;;;2.60;99.90;;;;;;5037610;28;20481;-65
2022/03/01 02:44:05;;;;;;;15.82;9.65;;;2.60;99.90;;;;;;5037814;28;20036;-66
2022/03/01 02:46:31;;;;;;;19.33;11.63;;;2.60;99.90;;;;;;5054072;28;20258;-66
2022/03/01 02:48:57;;;;;;;16.25;9.15;;;2.60;99.90;;;;;;5053938;28;20055;-65
2022/03/01 02:51:23;;;;;;;17.60;11.10;;;2.60;99.90;;;;;;5054199;28;20123;-66
2022/03/01 02:53:49;;;;;;;17.23;11.10;;;2.60;99.90;;;;;;5051714;28;20384;-66
2022/03/01 02:56:14;;;;;;;20.38;12.00;;;2.60;99.90;;;;;;5037597;28;20048;-66
2022/03/01 02:58:40;;;;;;;19.27;8.25;;;2.60;99.90;;;;;;5037261;28;20069;-66
2022/03/01 03:01:07;;;;;;;18.73;11.38;;;2.60;99.90;;;;;;5054275;28;20558;-66
2022/03/01 03:03:33;;;;;;;17.33;11.10;;;2.70;99.90;;;;;;5053826;28;20040;-66
2022/03/01 03:05:59;;;;;;;18.02;11.20;;;2.70;99.90;;;;;;5053876;28;20041;-66
2022/03/01 03:08:25;;;;;;;17.13;11.85;;;2.70;99.90;;;;;;5053958;28;20051;-66
2022/03/01 03:10:52;;;;;;;19.92;11.25;;;2.70;99.90;;;;;;5054148;28;20400;-65
2022/03/01 03:13:19;;;;;;;18.40;11.80;;;2.70;99.90;;;;;;5053758;28;20044;-65
2022/03/01 03:15:46;;;;;;;19.20;10.63;;;2.70;99.90;;;;;;5053764;28;20044;-66
2022/03/01 03:18:13;;;;;;;17.55;11.60;;;2.70;99.90;;;;;;5053584;28;20070;-65
2022/03/01 03:20:39;;;;;;;20.08;11.25;;;2.70;99.90;;;;;;5053734;28;20128;-66
2022/03/01 03:23:05;;;;;;;19.85;10.82;;;2.70;99.90;;;;;;5053832;28;20120;-66
2022/03/01 03:25:32;;;;;;;18.35;12.07;;;2.70;99.90;;;;;;5073682;28;20514;-65
2022/03/01 03:27:58;;;;;;;19.45;12.38;;;2.70;99.90;;;;;;5074000;28;20036;-66
2022/03/01 03:30:24;;;;;;;18.65;11.73;;;2.70;99.90;;;;;;5073879;28;20119;-65
2022/03/01 03:32:49;;;;;;;20.50;11.88;;;2.70;99.90;;;;;;5056896;28;20551;-65
2022/03/01 03:35:15;;;;;;;17.50;11.60;;;2.70;99.90;;;;;;5073609;28;20043;-65
2022/03/01 03:37:41;;;;;;;17.27;11.30;;;2.70;99.90;;;;;;5056965;28;20048;-66
2022/03/01 03:40:08;;;;;;;19.77;11.95;;;2.70;99.90;;;;;;5073469;28;20051;-65
2022/03/01 03:42:33;;;;;;;18.23;11.00;;;2.60;99.90;;;;;;5073983;28;20036;-65
2022/03/01 03:44:59;;;;;;;18.67;12.07;;;2.60;99.90;;;;;;5073396;28;20121;-66
2022/03/01 03:47:25;;;;;;;20.60;12.13;;;2.60;99.90;;;;;;5073717;28;20040;-66
2022/03/01 03:49:51;;;;;;;20.17;12.70;;;2.60;99.90;;;;;;5056943;28;20550;-66
2022/03/01 03:52:17;;;;;;;17.08;10.40;;;2.60;99.90;;;;;;5073476;28;20392;-66
2022/03/01 03:54:42;;;;;;;17.83;12.15;;;2.60;99.90;;;;;;5071180;28;20079;-65
2022/03/01 03:57:08;;;;;;;20.10;12.50;;;2.60;99.90;;;;;;5073299;28;20377;-65
2022/03/01 03:59:39;;;;;;;19.80;13.25;;;2.60;99.90;;;;;;5073575;28;20036;-65
2022/03/01 04:02:06;;;;;;;19.20;11.80;;;2.50;99.90;;;;;;5073717;28;20032;-66
2022/03/01 04:04:32;;;;;;;18.77;12.40;;;2.60;99.90;;;;;;5073272;28;20036;-66
2022/03/01 04:06:58;;;;;;;18.35;11.30;;;2.50;99.90;;;;;;5056900;28;20044;-66
2022/03/01 04:09:24;;;;;;;19.27;11.10;;;2.60;99.90;;;;;;5073476;28;20050;-67
2022/03/01 04:11:50;;;;;;;21.52;11.27;;;2.60;99.90;;;;;;5056872;28;20040;-66
2022/03/01 04:14:17;;;;;;;17.98;10.98;;;2.60;99.90;;;;;;5074704;28;20626;-65
2022/03/01 04:16:44;;;;;;;22.48;11.50;;;2.60;99.90;;;;;;5076948;28;20091;-65
2022/03/01 04:19:10;;;;;;;19.80;12.00;;;2.60;99.90;;;;;;5076756;28;20075;-65
2022/03/01 04:21:37;;;;;;;18.38;11.05;;;2.60;99.90;;;;;;5060158;28;20113;-65
2022/03/01 04:24:04;;;;;;;20.23;10.38;;;2.60;99.90;;;;;;5057668;28;20052;-65
2022/03/01 04:26:30;;;;;;;19.67;11.77;;;2.60;99.90;;;;;;5076910;28;20063;-66
2022/03/01 04:28:56;;;;;;;20.00;12.20;;;2.70;99.90;;;;;;5076820;28;20488;-65
2022/03/01 04:31:22;;;;;;;19.38;11.88;;;2.70;99.90;;;;;;5076841;28;20040;-66
2022/03/01 04:33:48;;;;;;;19.35;12.30;;;2.70;99.90;;;;;;5059910;28;20115;-66
2022/03/01 04:36:15;;;;;;;18.02;10.57;;;2.80;99.90;;;;;;5076888;28;20044;-66
2022/03/01 04:38:41;;;;;;;16.27;10.48;;;2.80;99.90;;;;;;5076353;28;20587;-66
2022/03/01 04:41:09;;;;;;;19.23;11.95;;;2.90;99.90;;;;;;5059801;28;20054;-66
2022/03/01 04:43:36;;;;;;;15.88;9.15;;;2.90;99.90;;;;;;5076576;28;20036;-66
2022/03/01 04:46:02;;;;;;;19.60;11.32;;;2.90;99.90;;;;;;5076577;28;20362;-66
2022/03/01 04:48:28;;;;;;;18.45;12.32;;;3.00;99.90;;;;;;5076646;28;20181;-66
2022/03/01 04:50:54;;;;;;;17.73;10.52;;;3.00;99.90;;;;;;5076173;28;20127;-66
2022/03/01 04:53:20;;;;;;;20.08;9.98;;;3.10;99.90;;;;;;5073816;28;20328;-66
2022/03/01 04:55:46;;;;;;;17.20;10.55;;;3.10;99.90;;;;;;5076047;28;20097;-66
2022/03/01 04:58:12;;;;;;;17.67;10.40;;;3.10;99.90;;;;;;5059273;28;20076;-66
2022/03/01 05:00:37;;;;;;;18.70;10.68;;;3.20;99.90;;;;;;5076310;28;20032;-66
2022/03/01 05:03:05;;;;;;;17.45;10.27;;;3.20;99.90;;;;;;5059618;28;20043;-66
2022/03/01 05:05:31;;;;;;;17.17;10.05;;;3.30;99.90;;;;;;5059594;28;20094;-66
2022/03/01 05:07:56;;;;;;;19.40;11.88;;;3.30;99.90;;;;;;5075978;28;20602;-66
2022/03/01 05:10:22;;;;;;;18.17;11.43;;;3.30;99.90;;;;;;5076025;28;20044;-66
2022/03/01 05:12:54;;;;;;;19.08;11.38;;;3.40;99.90;;;;;;5075804;28;20499;-66
2022/03/01 05:15:22;;;;;;;16.70;10.95;;;3.40;99.90;;;;;;5075765;28;20105;-66
2022/03/01 05:17:48;;;;;;;16.80;9.32;;;3.40;99.90;;;;;;5075657;28;20048;-66
2022/03/01 05:20:15;;;;;;;17.73;10.65;;;3.50;99.90;;;;;;5075902;28;20032;-66
2022/03/01 05:22:42;;;;;;;19.58;11.82;;;3.50;99.90;;;;;;5075891;28;20125;-66
2022/03/01 05:25:10;;;;;;;19.48;11.63;;;3.50;99.90;;;;;;5071927;28;20387;-65
2022/03/01 05:27:41;;;;;;;16.83;11.40;;;3.40;99.90;;;;;;5073112;28;20223;-65
2022/03/01 05:30:09;;;;;;;18.23;11.38;;;3.40;99.90;;;;;;5075434;28;20048;-65
2022/03/01 05:32:37;;;;;;;19.50;12.32;;;3.40;99.90;;;;;;5075321;28;20528;-66
2022/03/01 05:35:04;;;;;;;19.13;11.07;;;3.30;99.90;;;;;;5075628;28;20458;-66
2022/03/01 05:37:30;;;;;;;20.17;11.85;;;3.30;99.90;;;;;;5075220;28;20040;-66
2022/03/01 05:39:56;;;;;;;19.33;11.25;;;3.20;99.90;;;;;;5058508;28;20082;-66
2022/03/01 05:42:23;;;;;;;21.45;11.63;;;3.20;99.90;;;;;;5058841;28;20032;-66
2022/03/01 05:44:50;;;;;;;20.55;11.68;;;3.20;99.90;;;;;;5075124;28;20078;-66
2022/03/01 05:47:16;;;;;;;18.08;10.80;;;3.20;99.90;;;;;;5058729;28;20032;-66
2022/03/01 05:49:42;;;;;;;19.67;11.23;;;3.20;99.90;;;;;;5075052;28;20488;-66
2022/03/01 05:52:08;;;;;;;18.27;11.05;;;3.20;99.90;;;;;;5075024;28;20086;-66
2022/03/01 05:54:34;;;;;;;18.20;9.45;;;3.20;99.90;;;;;;5072693;28;20040;-66
2022/03/01 05:57:00;;;;;;;20.33;10.63;;;3.20;99.90;;;;;;5075351;28;20036;-66
2022/03/01 05:59:26;;;;;;;19.15;12.95;;;3.20;99.90;;;;;;5074943;28;20598;-66
2022/03/01 06:01:52;;;;;;;17.10;11.10;;;3.20;99.90;;;;;;5074831;28;20081;-66
2022/03/01 06:04:18;;;;;;;18.50;12.05;;;3.20;99.90;;;;;;5074839;28;20032;-66
2022/03/01 06:06:43;;;;;;;17.05;10.23;;;3.10;99.90;;;;;;5074726;28;20036;-66
2022/03/01 06:09:09;;;;;;;19.10;9.05;;;3.10;99.90;;;;;;5058038;28;20047;-66
2022/03/01 06:11:35;;;;;;;20.77;11.68;;;3.10;99.90;;;;;;5057901;28;20047;-65
2022/03/01 06:14:02;;;;;;;26.73;13.95;;;3.10;99.90;;;;;;5058248;28;20093;-65
2022/03/01 06:16:27;;;;;;;19.40;12.55;;;3.10;99.90;;;;;;5057940;28;20104;-65
2022/03/01 06:18:53;;;;;;;19.13;11.85;;;3.20;99.90;;;;;;5074521;28;20357;-66
2022/03/01 06:21:20;;;;;;;20.08;12.23;;;3.20;99.90;;;;;;5074628;28;20035;-66
2022/03/01 06:23:46;;;;;;;16.98;11.07;;;3.20;99.90;;;;;;5071993;28;20055;-66
2022/03/01 06:26:12;;;;;;;19.02;12.20;;;3.20;99.90;;;;;;5074671;28;20040;-66
2022/03/01 06:28:38;;;;;;;18.80;11.60;;;3.20;99.90;;;;;;5074374;28;20040;-66
2022/03/01 06:31:04;;;;;;;20.27;12.73;;;3.20;99.90;;;;;;5054585;28;20075;-65
2022/03/01 06:33:30;;;;;;;19.10;12.70;;;3.20;99.90;;;;;;5054462;28;20127;-65
2022/03/01 06:35:56;;;;;;;20.88;12.57;;;3.20;99.90;;;;;;5037781;28;20503;-66
2022/03/01 06:38:21;;;;;;;21.55;12.05;;;3.20;99.90;;;;;;5053960;28;20036;-66
2022/03/01 06:40:48;;;;;;;22.85;12.40;;;3.20;99.90;;;;;;5037587;28;20349;-66
2022/03/01 06:43:14;;;;;;;21.25;13.07;;;3.20;99.90;;;;;;5054388;28;20036;-66
2022/03/01 06:45:40;;;;;;;21.83;12.45;;;3.20;99.90;;;;;;5054018;28;20041;-66
2022/03/01 06:48:05;;;;;;;21.80;13.15;;;3.20;99.90;;;;;;5037741;28;20041;-65
2022/03/01 06:50:31;;;;;;;22.65;13.60;;;3.30;99.90;;;;;;5053929;28;20390;-66
2022/03/01 06:52:57;;;;;;;20.38;12.10;;;3.30;99.90;;;;;;5053929;28;20041;-66
2022/03/01 06:55:23;;;;;;;21.45;12.18;;;3.30;99.90;;;;;;5051502;28;20119;-66
2022/03/01 06:57:49;;;;;;;21.63;12.77;;;3.30;99.90;;;;;;5053851;28;20040;-66
2022/03/01 07:00:16;;;;;;;21.60;13.95;;;3.30;99.90;;;;;;5054265;28;20425;-66
2022/03/01 07:02:42;;;;;;;22.05;13.07;;;3.40;99.90;;;;;;5053786;28;20041;-66
2022/03/01 07:05:11;;;;;;;21.95;14.13;;;3.40;99.90;;;;;;5053960;28;20048;-66
2022/03/01 07:07:37;;;;;;;18.02;10.93;;;3.40;99.90;;;;;;5053705;28;20113;-66
2022/03/01 07:10:05;;;;;;;20.92;12.57;;;3.40;99.90;;;;;;5053850;28;20078;-65
2022/03/01 07:12:30;;;;;;;16.95;11.63;;;3.40;99.90;;;;;;5053985;28;20043;-66
2022/03/01 07:14:57;;;;;;;21.63;12.73;;;3.50;99.90;;;;;;5053767;28;20040;-66
2022/03/01 07:17:22;;;;;;;20.25;13.20;;;3.50;99.90;;;;;;5037306;28;20082;-66
2022/03/01 07:19:51;;;;;;;19.83;13.77;;;3.50;99.90;;;;;;5037153;28;20087;-66
2022/03/01 07:22:18;;;;;;;19.50;12.05;;;3.60;99.90;;;;;;5037144;28;20040;-65
2022/03/01 07:24:44;;;;;;;18.65;12.75;;;3.60;99.90;;;;;;5067449;28;20135;-66
2022/03/01 07:27:10;;;;;;;25.27;14.15;;;3.60;99.90;;;;;;5073678;28;20178;-64
2022/03/01 07:29:37;;;;;;;22.05;13.05;;;3.60;99.90;;;;;;5074781;28;20416;-65
2022/03/01 07:32:07;;;;;;;22.60;12.88;;;3.70;99.90;;;;;;5057751;28;20040;-65
2022/03/01 07:34:33;;;;;;;21.02;13.05;;;3.70;99.90;;;;;;5074492;28;20044;-65
2022/03/01 07:36:59;;;;;;;22.48;13.75;;;3.80;99.90;;;;;;5056940;28;20083;-65
2022/03/01 07:39:25;;;;;;;25.77;13.65;;;3.80;99.90;;;;;;5074301;28;20040;-65
2022/03/01 07:41:51;;;;;;;19.63;13.80;;;3.80;99.90;;;;;;5057523;28;20043;-65
2022/03/01 07:44:18;;;;;;;20.45;13.23;;;3.80;99.90;;;;;;5058215;28;20384;-65
2022/03/01 07:46:44;;;;;;;19.30;12.63;;;3.90;99.90;;;;;;5074559;28;20119;-66
2022/03/01 07:49:10;;;;;;;25.88;12.38;;;3.90;99.90;;;;;;5074832;28;20127;-65
2022/03/01 07:51:36;;;;;;;23.17;14.05;;;3.90;99.90;;;;;;5078237;28;20043;-65
2022/03/01 07:54:01;;;;;;;21.33;12.95;;;3.90;99.90;;;;;;5059424;28;20044;-65
2022/03/01 07:56:27;;;;;;;21.63;13.45;;;3.90;99.90;;;;;;5078022;28;20040;-65
2022/03/01 07:58:53;;;;;;;22.40;13.57;;;3.90;99.90;;;;;;5078110;28;20102;-65
2022/03/01 08:01:20;;;;;;;18.33;12.20;;;4.00;99.90;;;;;;5055337;28;20131;-65
2022/03/01 08:03:47;;;;;;;22.45;12.93;;;4.10;99.90;;;;;;5078034;28;20083;-66
2022/03/01 08:06:13;;;;;;;24.10;14.43;;;4.10;99.90;;;;;;5061118;28;20046;-65
2022/03/01 08:08:39;;;;;;;20.50;12.98;;;4.10;99.90;;;;;;5077624;28;20067;-65
2022/03/01 08:11:05;;;;;;;17.83;12.70;;;4.20;99.90;;;;;;5078001;28;20079;-65
2022/03/01 08:13:32;;;;;;;21.58;12.68;;;4.30;99.90;;;;;;5077855;28;20032;-65
2022/03/01 08:15:58;;;;;;;18.70;12.00;;;4.40;99.90;;;;;;5077935;28;20388;-65
2022/03/01 08:18:24;;;;;;;18.42;12.73;;;4.40;99.90;;;;;;5074448;28;20044;-65
2022/03/01 08:20:49;;;;;;;20.98;12.20;;;4.60;99.90;;;;;;5077526;28;20059;-66
2022/03/01 08:23:15;;;;;;;18.88;12.40;;;4.70;99.90;;;;;;5075412;28;20054;-65
2022/03/01 08:25:42;;;;;;;18.63;12.13;;;4.80;99.90;;;;;;5077454;28;20047;-65
2022/03/01 08:28:08;;;;;;;18.30;11.88;;;4.90;99.90;;;;;;5094471;28;20050;-65
2022/03/01 08:30:35;;;;;;;16.95;10.88;;;5.00;99.90;;;;;;5079957;28;20036;-65
2022/03/01 08:33:02;;;;;;;19.85;12.18;;;5.00;99.90;;;;;;5097528;28;20100;-65
2022/03/01 08:35:32;;;;;;;18.83;11.75;;;5.10;99.90;;;;;;5098012;28;20095;-66
2022/03/01 08:38:02;;;;;;;20.73;12.32;;;5.10;99.90;;;;;;5097673;28;20126;-66
2022/03/01 08:40:29;;;;;;;19.60;12.65;;;5.10;99.90;;;;;;5097631;28;20040;-65
2022/03/01 08:42:56;;;;;;;20.35;12.02;;;5.20;99.90;;;;;;5097476;28;20071;-65
2022/03/01 08:45:21;;;;;;;16.25;11.25;;;5.30;99.90;;;;;;5097606;28;20043;-65
2022/03/01 08:47:47;;;;;;;18.35;11.70;;;5.30;99.90;;;;;;5097217;28;20050;-65
2022/03/01 08:50:13;;;;;;;19.98;11.95;;;5.40;99.90;;;;;;5097686;28;20040;-65
2022/03/01 08:52:40;;;;;;;18.90;13.15;;;5.40;99.90;;;;;;5097124;28;20641;-65
2022/03/01 08:55:09;;;;;;;18.25;11.70;;;5.50;99.90;;;;;;5078455;28;20102;-65
2022/03/01 08:57:36;;;;;;;22.63;13.00;;;5.50;99.90;;;;;;5097148;28;20144;-65
2022/03/01 09:00:04;;;;;;;18.92;13.43;;;5.50;99.90;;;;;;5096920;28;20498;-66
2022/03/01 09:02:30;;;;;;;18.50;11.70;;;5.50;99.90;;;;;;5097226;28;20522;-65
2022/03/01 09:04:56;;;;;;;17.00;11.82;;;5.50;99.90;;;;;;5097369;28;20050;-65
2022/03/01 09:07:22;;;;;;;19.90;12.35;;;5.50;99.90;;;;;;5080112;28;20402;-65
2022/03/01 09:09:48;;;;;;;20.27;13.40;;;5.40;99.90;;;;;;5096959;28;20051;-66
2022/03/01 09:12:13;;;;;;;19.38;13.73;;;5.40;99.90;;;;;;5079965;28;20043;-66
2022/03/01 09:14:39;;;;;;;19.65;12.40;;;5.40;99.90;;;;;;5080239;28;20039;-65
2022/03/01 09:17:05;;;;;;;22.92;12.88;;;5.40;99.90;;;;;;5096919;28;20031;-65
2022/03/01 09:19:31;;;;;;;20.92;12.57;;;5.40;99.90;;;;;;5096036;28;20397;-65
2022/03/01 09:21:57;;;;;;;21.83;13.32;;;5.30;99.90;;;;;;5095802;28;20042;-66
2022/03/01 09:24:22;;;;;;;20.90;13.68;;;5.30;99.90;;;;;;5093223;28;20058;-66
2022/03/01 09:26:48;;;;;;;23.67;13.95;;;5.30;99.90;;;;;;5079276;28;20047;-66
2022/03/01 09:29:14;;;;;;;21.92;14.15;;;5.30;99.90;;;;;;5079083;28;20043;-66
2022/03/01 09:31:41;;;;;;;25.17;13.88;;;5.30;99.90;;;;;;5079079;28;20044;-65
2022/03/01 09:34:07;;;;;;;23.02;14.07;;;5.40;99.90;;;;;;5095937;28;20043;-67
2022/03/01 09:36:33;;;;;;;25.10;14.48;;;5.40;99.90;;;;;;5095452;28;20049;-66
2022/03/01 09:38:59;;;;;;;22.48;14.40;;;5.50;99.90;;;;;;5095457;28;20036;-66
2022/03/01 09:41:25;;;;;;;25.33;15.18;;;5.50;99.90;;;;;;5095615;28;20092;-65
2022/03/01 09:43:58;;;;;;;24.27;14.57;;;5.60;99.90;;;;;;5095604;28;20075;-66
2022/03/01 09:46:24;;;;;;;24.25;14.90;;;5.60;99.90;;;;;;5095375;28;20043;-66
2022/03/01 09:48:50;;;;;;;24.77;14.75;;;5.70;99.90;;;;;;5095250;28;20633;-66
2022/03/01 09:51:17;;;;;;;23.48;14.77;;;5.80;99.90;;;;;;5095282;28;20123;-66
2022/03/01 09:53:43;;;;;;;25.27;15.77;;;6.00;99.90;;;;;;5093111;28;20135;-66
2022/03/01 09:56:09;;;;;;;23.85;15.05;;;6.10;99.90;;;;;;5078324;28;20138;-66
2022/03/01 09:58:36;;;;;;;23.92;15.23;;;6.30;99.90;;;;;;5094815;28;20706;-65
2022/03/01 10:01:03;;;;;;;25.13;15.30;;;6.50;99.90;;;;;;5095537;28;20392;-66
2022/03/01 10:03:29;;;;;;;24.58;15.65;;;6.70;99.90;;;;;;5095431;28;20044;-66
2022/03/01 10:06:09;;;;;;;21.02;13.68;;;6.80;99.90;;;;;;5096359;28;20035;-66
2022/03/01 10:08:35;;;;;;;26.00;14.73;;;6.90;99.90;;;;;;5095847;28;20044;-66
2022/03/01 10:11:01;;;;;;;24.00;15.13;;;7.10;99.90;;;;;;5078434;28;20053;-65
2022/03/01 10:13:30;;;;;;;20.65;14.40;;;7.20;99.90;;;;;;5095423;28;20047;-64
2022/03/01 10:16:13;;;;;;;22.50;14.90;;;7.20;99.80;;;;;;5095825;28;20092;-65
2022/03/01 10:18:48;;;;;;;24.98;13.85;;;7.10;99.60;;;;;;5078612;28;20043;-65
2022/03/01 10:21:14;;;;;;;20.58;14.27;;;7.20;99.90;;;;;;5092755;28;20047;-65
2022/03/01 10:23:47;;;;;;;19.60;12.73;;;7.20;99.60;;;;;;5069952;28;20047;-65
2022/03/01 10:26:16;;;;;;;23.85;15.68;;;7.10;99.60;;;;;;5075387;28;20046;-65
2022/03/01 10:28:43;;;;;;;25.77;16.10;;;7.10;99.90;;;;;;5058527;28;20054;-65
2022/03/01 10:31:13;;;;;;;22.05;13.77;;;7.20;99.90;;;;;;5075268;28;20044;-65
2022/03/01 10:34:02;;;;;;;25.80;16.55;;;7.20;99.80;;;;;;5075359;28;20047;-65
2022/03/01 10:36:29;;;;;;;25.80;16.33;;;7.20;99.60;;;;;;5075264;28;20431;-65
2022/03/01 10:39:11;;;;;;;26.95;16.15;;;7.30;99.90;;;;;;5075073;28;20051;-65
2022/03/01 10:41:41;;;;;;;22.20;15.20;;;7.40;99.90;;;;;;5074986;28;20040;-65
2022/03/01 10:44:30;;;;;;;24.35;15.40;;;7.50;99.90;;;;;;5067501;28;20119;-65
2022/03/01 10:46:58;;;;;;;22.13;14.75;;;7.60;99.80;;;;;;5074927;28;20044;-65
2022/03/01 10:49:26;;;;;;;21.17;13.07;;;7.70;99.80;;;;;;5058163;28;20503;-65
2022/03/01 10:51:53;;;;;;;20.67;13.13;;;7.80;99.50;;;;;;5075141;28;20043;-65
2022/03/01 10:54:40;;;;;;;22.40;15.13;;;7.80;98.20;;;;;;5072489;28;20122;-65
2022/03/01 10:57:11;;;;;;;22.05;15.15;;;7.80;98.00;;;;;;5074644;28;20040;-65
2022/03/01 10:59:38;;;;;;;23.58;14.63;;;7.80;98.10;;;;;;5074626;28;20052;-65
2022/03/01 11:02:05;;;;;;;21.20;13.32;;;7.90;98.00;;;;;;5074432;28;20094;-65
2022/03/01 11:04:32;;;;;;;27.70;15.60;;;7.80;97.40;;;;;;5074511;28;20028;-65
2022/03/01 11:07:00;;;;;;;19.23;13.45;;;7.80;97.10;;;;;;5075034;28;20043;-65
2022/03/01 11:09:28;;;;;;;21.63;14.80;;;7.70;97.50;;;;;;5074869;28;20066;-65
2022/03/01 11:11:55;;;;;;;23.35;14.38;;;7.70;97.30;;;;;;5074669;28;20210;-65
2022/03/01 11:14:35;;;;;;;21.67;13.38;;;7.60;97.50;;;;;;5074631;28;20063;-65
2022/03/01 11:17:13;;;;;;;20.42;13.65;;;7.60;97.10;;;;;;5075012;28;20480;-65
2022/03/01 11:20:14;;;;;;;22.60;14.32;;;7.60;96.90;;;;;;5074497;28;20066;-65
2022/03/01 11:22:42;;;;;;;20.50;14.30;;;7.60;97.20;;;;;;5058606;28;20550;-65
2022/03/01 11:25:22;;;;;;;24.80;13.82;;;7.60;97.40;;;;;;5076339;28;20040;-65
2022/03/01 11:27:51;;;;;;;21.90;14.35;;;7.70;97.80;;;;;;5078836;28;20044;-65
2022/03/01 11:30:31;;;;;;;24.45;15.25;;;7.80;97.80;;;;;;5078779;28;20522;-65
2022/03/01 11:32:57;;;;;;;18.63;13.93;;;7.80;97.60;;;;;;5078504;28;20051;-65
2022/03/01 11:35:26;;;;;;;20.02;13.57;;;7.90;97.90;;;;;;5078595;28;20543;-66
2022/03/01 11:38:10;;;;;;;21.45;15.25;;;7.90;97.60;;;;;;5078434;28;20080;-66
2022/03/01 11:40:42;;;;;;;23.55;14.73;;;7.90;97.90;;;;;;5078643;28;20416;-66
2022/03/01 11:43:13;;;;;;;22.45;14.57;;;7.90;98.30;;;;;;5078408;28;20097;-65
2022/03/01 11:45:44;;;;;;;21.95;14.75;;;7.80;97.60;;;;;;5078345;28;20051;-65
2022/03/01 11:48:16;;;;;;;24.58;16.23;;;7.70;97.80;;;;;;5061925;28;20376;-66
2022/03/01 11:50:48;;;;;;;24.77;15.80;;;7.70;97.80;;;;;;5061558;28;20048;-66
2022/03/01 11:53:18;;;;;;;24.75;16.55;;;7.70;98.30;;;;;;5076492;28;20048;-66
2022/03/01 11:55:50;;;;;;;22.35;16.70;;;7.70;98.90;;;;;;5061435;28;20534;-66
2022/03/01 11:58:18;;;;;;;24.52;15.77;;;7.70;99.50;;;;;;5078322;28;20523;-66
2022/03/01 12:00:45;;;;;;;25.23;17.00;;;7.70;99.70;;;;;;5077986;28;20037;-65
2022/03/01 12:03:14;;;;;;;26.38;16.65;;;7.80;99.80;;;;;;5078214;28;20047;-66
2022/03/01 12:05:40;;;;;;;26.77;16.75;;;7.80;99.90;;;;;;5077574;28;20063;-65
2022/03/01 12:08:09;;;;;;;27.85;17.10;;;7.80;99.90;;;;;;5061447;28;20653;-64
2022/03/01 12:10:35;;;;;;;28.83;18.42;;;7.90;99.90;;;;;;5077671;28;20044;-65
2022/03/01 12:13:06;;;;;;;24.92;16.40;;;7.90;99.90;;;;;;5061155;28;20048;-64
2022/03/01 12:15:35;;;;;;;25.65;17.70;;;8.00;99.90;;;;;;5078035;28;20480;-65
2022/03/01 12:18:15;;;;;;;27.27;17.58;;;8.10;99.90;;;;;;5077712;28;20076;-65
2022/03/01 12:20:46;;;;;;;25.67;16.67;;;8.10;99.90;;;;;;5074701;28;20055;-66
2022/03/01 12:23:24;;;;;;;25.17;15.88;;;8.10;99.90;;;;;;5076474;28;20435;-66
2022/03/01 12:25:50;;;;;;;25.08;17.05;;;8.10;99.60;;;;;;5077890;28;20495;-65
2022/03/01 12:28:19;;;;;;;25.35;17.63;;;8.10;99.70;;;;;;5060952;28;20051;-65
2022/03/01 12:30:45;;;;;;;24.60;15.93;;;8.10;99.70;;;;;;5060670;28;20049;-65
2022/03/01 12:33:17;;;;;;;24.60;16.90;;;8.00;99.20;;;;;;5077569;28;20055;-65
2022/03/01 12:35:54;;;;;;;27.80;16.65;;;8.00;99.00;;;;;;5076989;28;20485;-65
2022/03/01 12:38:20;;;;;;;23.08;15.77;;;8.00;98.80;;;;;;5077632;28;20040;-65
2022/03/01 12:40:46;;;;;;;24.55;16.42;;;8.00;98.50;;;;;;5060849;28;20552;-65